sensor_id;sensor_type;location;lat;lon;timestamp;temperature;humidity
9760;DHT22;4919;48.792;9.202;2023-01-23T00:00:03;1.70;99.90
9760;DHT22;4919;48.792;9.202;2023-01-23T00:02:48;1.70;99.90
9760;DHT22;4919;48.792;9.202;2023-01-23T00:05:32;1.70;99.90
9760;DHT22;4919;48.792;9.202;2023-01-23T00:08:17;1.70;99.90
9760;DHT22;4919;48.792;9.202;2023-01-23T00:11:06;1.70;99.90
9760;DHT22;4919;48.792;9.202;2023-01-23T00:13:51;1.60;99.90
9760;DHT22;4919;48.792;9.202;2023-01-23T00:16:36;1.60;99.90
9760;DHT22;4919;48.792;9.202;2023-01-23T00:19:21;1.70;99.90
9760;DHT22;4919;48.792;9.202;2023-01-23T00:22:06;1.60;99.90
9760;DHT22;4919;48.792;9.202;2023-01-23T00:24:51;1.60;99.90
9760;DHT22;4919;48.792;9.202;2023-01-23T00:27:36;1.60;99.90
9760;DHT22;4919;48.792;9.202;2023-01-23T00:30:21;1.60;99.90
9760;DHT22;4919;48.792;9.202;2023-01-23T00:33:06;1.60;99.90
9760;DHT22;4919;48.792;9.202;2023-01-23T00:35:54;1.60;99.90
9760;DHT22;4919;48.792;9.202;2023-01-23T00:38:39;1.60;99.90
9760;DHT22;4919;48.792;9.202;2023-01-23T00:41:24;1.70;99.90
9760;DHT22;4919;48.792;9.202;2023-01-23T00:44:09;1.60;99.90
9760;DHT22;4919;48.792;9.202;2023-01-23T00:46:54;1.60;99.90
9760;DHT22;4919;48.792;9.202;2023-01-23T00:49:39;1.60;99.90
9760;DHT22;4919;48.792;9.202;2023-01-23T00:52:25;1.70;99.90
9760;DHT22;4919;48.792;9.202;2023-01-23T00:55:10;1.70;99.90
9760;DHT22;4919;48.792;9.202;2023-01-23T00:57:55;1.60;99.90
9760;DHT22;4919;48.792;9.202;2023-01-23T01:00:40;1.60;99.90
9760;DHT22;4919;48.792;9.202;2023-01-23T01:03:25;1.70;99.90
9760;DHT22;4919;48.792;9.202;2023-01-23T01:06:10;1.70;99.90
9760;DHT22;4919;48.792;9.202;2023-01-23T01:08:56;1.60;99.90
9760;DHT22;4919;48.792;9.202;2023-01-23T01:11:41;1.60;99.90
9760;DHT22;4919;48.792;9.202;2023-01-23T01:14:26;1.60;99.90
9760;DHT22;4919;48.792;9.202;2023-01-23T01:17:11;1.60;99.90
9760;DHT22;4919;48.792;9.202;2023-01-23T01:19:56;1.70;99.90
9760;DHT22;4919;48.792;9.202;2023-01-23T01:22:41;1.70;99.90
9760;DHT22;4919;48.792;9.202;2023-01-23T01:25:26;1.70;99.90
9760;DHT22;4919;48.792;9.202;2023-01-23T01:28:11;1.70;99.90
9760;DHT22;4919;48.792;9.202;2023-01-23T01:31:12;1.70;99.90
9760;DHT22;4919;48.792;9.202;2023-01-23T01:33:58;1.70;99.90
9760;DHT22;4919;48.792;9.202;2023-01-23T01:36:42;1.70;99.90
9760;DHT22;4919;48.792;9.202;2023-01-23T01:39:27;1.70;99.90
9760;DHT22;4919;48.792;9.202;2023-01-23T01:42:12;1.70;99.90
9760;DHT22;4919;48.792;9.202;2023-01-23T01:45:00;1.60;99.90
9760;DHT22;4919;48.792;9.202;2023-01-23T01:47:45;1.70;99.90
9760;DHT22;4919;48.792;9.202;2023-01-23T01:50:30;1.70;99.90
9760;DHT22;4919;48.792;9.202;2023-01-23T01:53:15;1.70;99.90
9760;DHT22;4919;48.792;9.202;2023-01-23T01:56:00;1.70;99.90
9760;DHT22;4919;48.792;9.202;2023-01-23T01:58:46;1.70;99.90
9760;DHT22;4919;48.792;9.202;2023-01-23T02:01:33;1.60;99.90
9760;DHT22;4919;48.792;9.202;2023-01-23T02:04:18;1.70;99.90
9760;DHT22;4919;48.792;9.202;2023-01-23T02:07:08;1.60;99.90
9760;DHT22;4919;48.792;9.202;2023-01-23T02:09:54;1.60;99.90
9760;DHT22;4919;48.792;9.202;2023-01-23T02:12:39;1.60;99.90
9760;DHT22;4919;48.792;9.202;2023-01-23T02:15:24;1.60;99.90
9760;DHT22;4919;48.792;9.202;2023-01-23T02:18:09;1.60;99.90
9760;DHT22;4919;48.792;9.202;2023-01-23T02:20:55;1.70;99.90
9760;DHT22;4919;48.792;9.202;2023-01-23T02:23:51;1.70;99.90
9760;DHT22;4919;48.792;9.202;2023-01-23T02:26:40;1.70;99.90
9760;DHT22;4919;48.792;9.202;2023-01-23T02:29:25;1.60;99.90
9760;DHT22;4919;48.792;9.202;2023-01-23T02:32:10;1.70;99.90
9760;DHT22;4919;48.792;9.202;2023-01-23T02:34:56;1.70;99.90
9760;DHT22;4919;48.792;9.202;2023-01-23T02:37:45;1.60;99.90
9760;DHT22;4919;48.792;9.202;2023-01-23T02:40:34;1.60;99.90
9760;DHT22;4919;48.792;9.202;2023-01-23T02:43:22;1.60;99.90
9760;DHT22;4919;48.792;9.202;2023-01-23T02:46:10;1.60;99.90
9760;DHT22;4919;48.792;9.202;2023-01-23T02:48:55;1.60;99.90
9760;DHT22;4919;48.792;9.202;2023-01-23T02:51:40;1.70;99.90
9760;DHT22;4919;48.792;9.202;2023-01-23T02:54:25;1.70;99.90
9760;DHT22;4919;48.792;9.202;2023-01-23T02:57:10;1.70;99.90
9760;DHT22;4919;48.792;9.202;2023-01-23T02:59:55;1.70;99.90
9760;DHT22;4919;48.792;9.202;2023-01-23T03:02:40;1.60;99.90
9760;DHT22;4919;48.792;9.202;2023-01-23T03:05:25;1.70;99.90
9760;DHT22;4919;48.792;9.202;2023-01-23T03:08:10;1.60;99.90
9760;DHT22;4919;48.792;9.202;2023-01-23T03:10:55;1.70;99.90
9760;DHT22;4919;48.792;9.202;2023-01-23T03:13:40;1.70;99.90
9760;DHT22;4919;48.792;9.202;2023-01-23T03:16:24;1.70;99.90
9760;DHT22;4919;48.792;9.202;2023-01-23T03:19:09;1.70;99.90
9760;DHT22;4919;48.792;9.202;2023-01-23T03:21:54;1.70;99.90
9760;DHT22;4919;48.792;9.202;2023-01-23T03:24:39;1.70;99.90
9760;DHT22;4919;48.792;9.202;2023-01-23T03:27:24;1.70;99.90
9760;DHT22;4919;48.792;9.202;2023-01-23T03:30:13;1.70;99.90
9760;DHT22;4919;48.792;9.202;2023-01-23T03:32:58;1.70;99.90
9760;DHT22;4919;48.792;9.202;2023-01-23T03:35:43;1.70;99.90
9760;DHT22;4919;48.792;9.202;2023-01-23T03:38:27;1.70;99.90
9760;DHT22;4919;48.792;9.202;2023-01-23T03:41:12;1.70;99.90
9760;DHT22;4919;48.792;9.202;2023-01-23T03:43:57;1.70;99.90
9760;DHT22;4919;48.792;9.202;2023-01-23T03:46:42;1.70;99.90
9760;DHT22;4919;48.792;9.202;2023-01-23T03:49:27;1.70;99.90
9760;DHT22;4919;48.792;9.202;2023-01-23T03:52:12;1.70;99.90
9760;DHT22;4919;48.792;9.202;2023-01-23T03:54:57;1.70;99.90
9760;DHT22;4919;48.792;9.202;2023-01-23T03:57:42;1.80;99.90
9760;DHT22;4919;48.792;9.202;2023-01-23T04:00:27;1.70;99.90
9760;DHT22;4919;48.792;9.202;2023-01-23T04:03:12;1.70;99.90
9760;DHT22;4919;48.792;9.202;2023-01-23T04:05:58;1.70;99.90
9760;DHT22;4919;48.792;9.202;2023-01-23T04:08:43;1.70;99.90
9760;DHT22;4919;48.792;9.202;2023-01-23T04:11:28;1.70;99.90
9760;DHT22;4919;48.792;9.202;2023-01-23T04:14:13;1.70;99.90
9760;DHT22;4919;48.792;9.202;2023-01-23T04:16:58;1.70;99.90
9760;DHT22;4919;48.792;9.202;2023-01-23T04:19:43;1.70;99.90
9760;DHT22;4919;48.792;9.202;2023-01-23T04:22:28;1.70;99.90
9760;DHT22;4919;48.792;9.202;2023-01-23T04:25:13;1.70;99.90
9760;DHT22;4919;48.792;9.202;2023-01-23T04:27:57;1.70;99.90
9760;DHT22;4919;48.792;9.202;2023-01-23T04:30:42;1.70;99.90
9760;DHT22;4919;48.792;9.202;2023-01-23T04:33:27;1.70;99.90
9760;DHT22;4919;48.792;9.202;2023-01-23T04:36:12;1.70;99.90
9760;DHT22;4919;48.792;9.202;2023-01-23T04:38:57;1.70;99.90
9760;DHT22;4919;48.792;9.202;2023-01-23T04:41:42;1.70;99.90
9760;DHT22;4919;48.792;9.202;2023-01-23T04:44:27;1.70;99.90
9760;DHT22;4919;48.792;9.202;2023-01-23T04:47:12;1.70;99.90
9760;DHT22;4919;48.792;9.202;2023-01-23T04:49:57;1.70;99.90
9760;DHT22;4919;48.792;9.202;2023-01-23T04:52:42;1.70;99.90
9760;DHT22;4919;48.792;9.202;2023-01-23T04:55:27;1.70;99.90
9760;DHT22;4919;48.792;9.202;2023-01-23T04:58:12;1.70;99.90
9760;DHT22;4919;48.792;9.202;2023-01-23T05:01:07;1.70;99.90
9760;DHT22;4919;48.792;9.202;2023-01-23T05:03:52;1.70;99.90
9760;DHT22;4919;48.792;9.202;2023-01-23T05:06:37;1.70;99.90
9760;DHT22;4919;48.792;9.202;2023-01-23T05:09:22;1.60;99.90
9760;DHT22;4919;48.792;9.202;2023-01-23T05:12:07;1.70;99.90
9760;DHT22;4919;48.792;9.202;2023-01-23T05:14:51;1.70;99.90
9760;DHT22;4919;48.792;9.202;2023-01-23T05:17:36;1.70;99.90
9760;DHT22;4919;48.792;9.202;2023-01-23T05:20:21;1.70;99.90
9760;DHT22;4919;48.792;9.202;2023-01-23T05:23:06;1.70;99.90
9760;DHT22;4919;48.792;9.202;2023-01-23T05:25:51;1.60;99.90
9760;DHT22;4919;48.792;9.202;2023-01-23T05:28:36;1.60;99.90
9760;DHT22;4919;48.792;9.202;2023-01-23T05:31:21;1.70;99.90
9760;DHT22;4919;48.792;9.202;2023-01-23T05:34:06;1.60;99.90
9760;DHT22;4919;48.792;9.202;2023-01-23T05:36:51;1.60;99.90
9760;DHT22;4919;48.792;9.202;2023-01-23T05:39:36;1.60;99.90
9760;DHT22;4919;48.792;9.202;2023-01-23T05:42:21;1.60;99.90
9760;DHT22;4919;48.792;9.202;2023-01-23T05:45:06;1.60;99.90
9760;DHT22;4919;48.792;9.202;2023-01-23T05:47:51;1.60;99.90
9760;DHT22;4919;48.792;9.202;2023-01-23T05:50:35;1.60;99.90
9760;DHT22;4919;48.792;9.202;2023-01-23T05:53:20;1.60;99.90
9760;DHT22;4919;48.792;9.202;2023-01-23T05:56:09;1.60;99.90
9760;DHT22;4919;48.792;9.202;2023-01-23T05:58:54;1.60;99.90
9760;DHT22;4919;48.792;9.202;2023-01-23T06:01:39;1.60;99.90
9760;DHT22;4919;48.792;9.202;2023-01-23T06:04:24;1.60;99.90
9760;DHT22;4919;48.792;9.202;2023-01-23T06:07:13;1.60;99.90
9760;DHT22;4919;48.792;9.202;2023-01-23T06:09:58;1.60;99.90
9760;DHT22;4919;48.792;9.202;2023-01-23T06:12:43;1.60;99.90
9760;DHT22;4919;48.792;9.202;2023-01-23T06:15:28;1.60;99.90
9760;DHT22;4919;48.792;9.202;2023-01-23T06:18:13;1.60;99.90
9760;DHT22;4919;48.792;9.202;2023-01-23T06:21:01;1.60;99.90
9760;DHT22;4919;48.792;9.202;2023-01-23T06:23:46;1.60;99.90
9760;DHT22;4919;48.792;9.202;2023-01-23T06:26:31;1.60;99.90
9760;DHT22;4919;48.792;9.202;2023-01-23T06:29:16;1.60;99.90
9760;DHT22;4919;48.792;9.202;2023-01-23T06:32:01;1.60;99.90
9760;DHT22;4919;48.792;9.202;2023-01-23T06:34:45;1.60;99.90
9760;DHT22;4919;48.792;9.202;2023-01-23T06:37:30;1.60;99.90
9760;DHT22;4919;48.792;9.202;2023-01-23T06:40:15;1.60;99.90
9760;DHT22;4919;48.792;9.202;2023-01-23T06:43:00;1.60;99.90
9760;DHT22;4919;48.792;9.202;2023-01-23T06:45:46;1.60;99.90
9760;DHT22;4919;48.792;9.202;2023-01-23T06:48:31;1.50;99.90
9760;DHT22;4919;48.792;9.202;2023-01-23T06:51:15;1.50;99.90
9760;DHT22;4919;48.792;9.202;2023-01-23T06:54:00;1.50;99.90
9760;DHT22;4919;48.792;9.202;2023-01-23T06:56:45;1.50;99.90
9760;DHT22;4919;48.792;9.202;2023-01-23T06:59:30;1.50;99.90
9760;DHT22;4919;48.792;9.202;2023-01-23T07:02:15;1.60;99.90
9760;DHT22;4919;48.792;9.202;2023-01-23T07:05:00;1.60;99.90
9760;DHT22;4919;48.792;9.202;2023-01-23T07:07:45;1.60;99.90
9760;DHT22;4919;48.792;9.202;2023-01-23T07:10:30;1.60;99.90
9760;DHT22;4919;48.792;9.202;2023-01-23T07:13:15;1.60;99.90
9760;DHT22;4919;48.792;9.202;2023-01-23T07:16:00;1.60;99.90
9760;DHT22;4919;48.792;9.202;2023-01-23T07:18:45;1.60;99.90
9760;DHT22;4919;48.792;9.202;2023-01-23T07:21:31;1.60;99.90
9760;DHT22;4919;48.792;9.202;2023-01-23T07:24:16;1.60;99.90
9760;DHT22;4919;48.792;9.202;2023-01-23T07:27:00;1.60;99.90
9760;DHT22;4919;48.792;9.202;2023-01-23T07:29:45;1.70;99.90
9760;DHT22;4919;48.792;9.202;2023-01-23T07:32:30;1.60;99.90
9760;DHT22;4919;48.792;9.202;2023-01-23T07:35:15;1.70;99.90
9760;DHT22;4919;48.792;9.202;2023-01-23T07:38:00;1.70;99.90
9760;DHT22;4919;48.792;9.202;2023-01-23T07:40:45;1.70;99.90
9760;DHT22;4919;48.792;9.202;2023-01-23T07:43:30;1.70;99.90
9760;DHT22;4919;48.792;9.202;2023-01-23T07:46:15;1.70;99.90
9760;DHT22;4919;48.792;9.202;2023-01-23T07:49:00;1.70;99.90
9760;DHT22;4919;48.792;9.202;2023-01-23T07:51:44;1.60;99.90
9760;DHT22;4919;48.792;9.202;2023-01-23T07:54:29;1.70;99.90
9760;DHT22;4919;48.792;9.202;2023-01-23T07:57:14;1.70;99.90
9760;DHT22;4919;48.792;9.202;2023-01-23T07:59:59;1.70;99.90
9760;DHT22;4919;48.792;9.202;2023-01-23T08:02:44;1.70;99.90
9760;DHT22;4919;48.792;9.202;2023-01-23T08:05:29;1.60;99.90
9760;DHT22;4919;48.792;9.202;2023-01-23T08:08:14;1.70;99.90
9760;DHT22;4919;48.792;9.202;2023-01-23T08:11:03;1.70;99.90
9760;DHT22;4919;48.792;9.202;2023-01-23T08:13:49;1.70;99.90
9760;DHT22;4919;48.792;9.202;2023-01-23T08:16:33;1.80;99.90
9760;DHT22;4919;48.792;9.202;2023-01-23T08:19:19;1.80;99.90
9760;DHT22;4919;48.792;9.202;2023-01-23T08:22:04;1.80;99.90
9760;DHT22;4919;48.792;9.202;2023-01-23T08:24:48;1.70;99.90
9760;DHT22;4919;48.792;9.202;2023-01-23T08:27:33;1.70;99.90
9760;DHT22;4919;48.792;9.202;2023-01-23T08:30:18;1.80;99.90
9760;DHT22;4919;48.792;9.202;2023-01-23T08:33:03;1.70;99.90
9760;DHT22;4919;48.792;9.202;2023-01-23T08:35:55;1.80;99.90
9760;DHT22;4919;48.792;9.202;2023-01-23T08:38:41;1.80;99.90
9760;DHT22;4919;48.792;9.202;2023-01-23T08:41:25;1.70;99.90
9760;DHT22;4919;48.792;9.202;2023-01-23T08:44:11;1.80;99.90
9760;DHT22;4919;48.792;9.202;2023-01-23T08:46:56;1.70;99.90
9760;DHT22;4919;48.792;9.202;2023-01-23T08:49:40;1.70;99.90
9760;DHT22;4919;48.792;9.202;2023-01-23T08:52:25;1.80;99.90
9760;DHT22;4919;48.792;9.202;2023-01-23T08:55:10;1.80;99.90
9760;DHT22;4919;48.792;9.202;2023-01-23T08:57:55;1.70;99.90
9760;DHT22;4919;48.792;9.202;2023-01-23T09:00:40;1.70;99.90
9760;DHT22;4919;48.792;9.202;2023-01-23T09:03:26;1.80;99.90
9760;DHT22;4919;48.792;9.202;2023-01-23T09:06:11;1.80;99.90
9760;DHT22;4919;48.792;9.202;2023-01-23T09:08:56;1.90;99.90
9760;DHT22;4919;48.792;9.202;2023-01-23T09:11:41;1.90;99.90
9760;DHT22;4919;48.792;9.202;2023-01-23T09:14:26;1.90;99.90
9760;DHT22;4919;48.792;9.202;2023-01-23T09:17:11;1.90;99.90
9760;DHT22;4919;48.792;9.202;2023-01-23T09:19:56;2.00;99.90
9760;DHT22;4919;48.792;9.202;2023-01-23T09:22:41;1.90;99.90
9760;DHT22;4919;48.792;9.202;2023-01-23T09:25:25;1.90;99.90
9760;DHT22;4919;48.792;9.202;2023-01-23T09:28:11;1.90;99.90
9760;DHT22;4919;48.792;9.202;2023-01-23T09:30:55;1.90;99.90
9760;DHT22;4919;48.792;9.202;2023-01-23T09:33:40;2.00;99.90
9760;DHT22;4919;48.792;9.202;2023-01-23T09:36:25;1.90;99.90
9760;DHT22;4919;48.792;9.202;2023-01-23T09:39:11;2.00;99.90
9760;DHT22;4919;48.792;9.202;2023-01-23T09:41:56;1.90;99.90
9760;DHT22;4919;48.792;9.202;2023-01-23T09:44:44;2.00;99.90
9760;DHT22;4919;48.792;9.202;2023-01-23T09:47:35;2.00;99.90
9760;DHT22;4919;48.792;9.202;2023-01-23T09:50:29;2.00;99.90
9760;DHT22;4919;48.792;9.202;2023-01-23T09:53:17;2.00;99.90
9760;DHT22;4919;48.792;9.202;2023-01-23T09:56:47;2.00;99.90
9760;DHT22;4919;48.792;9.202;2023-01-23T09:59:37;2.00;99.90
9760;DHT22;4919;48.792;9.202;2023-01-23T10:02:22;2.00;99.90
9760;DHT22;4919;48.792;9.202;2023-01-23T10:05:15;1.90;99.90
9760;DHT22;4919;48.792;9.202;2023-01-23T10:11:10;1.90;99.90
9760;DHT22;4919;48.792;9.202;2023-01-23T10:17:29;2.00;99.90
9760;DHT22;4919;48.792;9.202;2023-01-23T10:20:31;2.00;99.90
9760;DHT22;4919;48.792;9.202;2023-01-23T10:23:40;2.00;99.90
9760;DHT22;4919;48.792;9.202;2023-01-23T10:26:39;2.10;99.90
9760;DHT22;4919;48.792;9.202;2023-01-23T10:29:35;2.20;99.90
9760;DHT22;4919;48.792;9.202;2023-01-23T10:32:27;2.10;99.90
9760;DHT22;4919;48.792;9.202;2023-01-23T10:35:23;2.10;99.90
9760;DHT22;4919;48.792;9.202;2023-01-23T10:38:36;2.10;99.90
9760;DHT22;4919;48.792;9.202;2023-01-23T10:41:23;2.10;99.90
9760;DHT22;4919;48.792;9.202;2023-01-23T10:44:16;2.20;99.90
9760;DHT22;4919;48.792;9.202;2023-01-23T10:47:03;2.20;99.90
9760;DHT22;4919;48.792;9.202;2023-01-23T10:49:55;2.30;99.90
9760;DHT22;4919;48.792;9.202;2023-01-23T10:52:42;2.30;99.90
9760;DHT22;4919;48.792;9.202;2023-01-23T10:55:29;2.30;99.90
9760;DHT22;4919;48.792;9.202;2023-01-23T10:58:35;2.30;99.90
9760;DHT22;4919;48.792;9.202;2023-01-23T11:01:26;2.30;99.90
9760;DHT22;4919;48.792;9.202;2023-01-23T11:04:20;2.30;99.90
9760;DHT22;4919;48.792;9.202;2023-01-23T11:07:14;2.30;99.90
9760;DHT22;4919;48.792;9.202;2023-01-23T11:12:53;2.30;99.90
9760;DHT22;4919;48.792;9.202;2023-01-23T11:15:38;2.40;99.90
9760;DHT22;4919;48.792;9.202;2023-01-23T11:18:39;2.40;99.90
9760;DHT22;4919;48.792;9.202;2023-01-23T11:21:31;2.40;99.90
9760;DHT22;4919;48.792;9.202;2023-01-23T11:33:17;2.30;99.90
9760;DHT22;4919;48.792;9.202;2023-01-23T11:36:28;2.40;99.90
9760;DHT22;4919;48.792;9.202;2023-01-23T11:42:23;2.30;99.90
9760;DHT22;4919;48.792;9.202;2023-01-23T11:45:24;2.30;99.90
9760;DHT22;4919;48.792;9.202;2023-01-23T12:00:31;2.50;99.90
9760;DHT22;4919;48.792;9.202;2023-01-23T12:03:25;2.50;99.90
9760;DHT22;4919;48.792;9.202;2023-01-23T12:09:13;2.50;99.90
9760;DHT22;4919;48.792;9.202;2023-01-23T12:15:45;2.60;99.90
9760;DHT22;4919;48.792;9.202;2023-01-23T12:21:44;2.70;99.90
9760;DHT22;4919;48.792;9.202;2023-01-23T12:27:48;2.60;99.90
9760;DHT22;4919;48.792;9.202;2023-01-23T12:45:27;2.60;99.90
9760;DHT22;4919;48.792;9.202;2023-01-23T12:48:34;2.70;99.90
9760;DHT22;4919;48.792;9.202;2023-01-23T12:51:26;2.70;99.90
9760;DHT22;4919;48.792;9.202;2023-01-23T12:54:18;2.70;99.90
9760;DHT22;4919;48.792;9.202;2023-01-23T12:57:07;2.70;99.90
9760;DHT22;4919;48.792;9.202;2023-01-23T13:00:05;2.60;99.90
9760;DHT22;4919;48.792;9.202;2023-01-23T13:03:20;2.60;99.90
9760;DHT22;4919;48.792;9.202;2023-01-23T13:14:44;2.60;99.90
9760;DHT22;4919;48.792;9.202;2023-01-23T13:23:29;2.70;99.90
9760;DHT22;4919;48.792;9.202;2023-01-23T13:29:01;2.70;99.90
9760;DHT22;4919;48.792;9.202;2023-01-23T13:31:46;2.70;99.90
9760;DHT22;4919;48.792;9.202;2023-01-23T13:40:20;2.70;99.90
9760;DHT22;4919;48.792;9.202;2023-01-23T13:43:40;2.70;99.90
9760;DHT22;4919;48.792;9.202;2023-01-23T13:49:38;2.70;99.90
9760;DHT22;4919;48.792;9.202;2023-01-23T13:52:31;2.70;99.90
9760;DHT22;4919;48.792;9.202;2023-01-23T13:55:34;2.70;99.90
9760;DHT22;4919;48.792;9.202;2023-01-23T13:58:26;2.60;99.90
9760;DHT22;4919;48.792;9.202;2023-01-23T14:01:14;2.70;99.90
9760;DHT22;4919;48.792;9.202;2023-01-23T14:04:11;2.70;99.90
9760;DHT22;4919;48.792;9.202;2023-01-23T14:06:57;2.70;99.90
9760;DHT22;4919;48.792;9.202;2023-01-23T14:09:42;2.70;99.90
9760;DHT22;4919;48.792;9.202;2023-01-23T14:12:30;2.70;99.90
9760;DHT22;4919;48.792;9.202;2023-01-23T14:18:22;2.70;99.90
9760;DHT22;4919;48.792;9.202;2023-01-23T14:24:22;2.70;99.90
9760;DHT22;4919;48.792;9.202;2023-01-23T14:27:09;2.70;99.90
9760;DHT22;4919;48.792;9.202;2023-01-23T14:30:01;2.70;99.90
9760;DHT22;4919;48.792;9.202;2023-01-23T14:32:47;2.60;99.90
9760;DHT22;4919;48.792;9.202;2023-01-23T14:35:32;2.60;99.90
9760;DHT22;4919;48.792;9.202;2023-01-23T14:38:28;2.60;99.90
9760;DHT22;4919;48.792;9.202;2023-01-23T14:41:14;2.60;99.90
9760;DHT22;4919;48.792;9.202;2023-01-23T14:44:01;2.50;99.90
9760;DHT22;4919;48.792;9.202;2023-01-23T14:46:50;2.60;99.90
9760;DHT22;4919;48.792;9.202;2023-01-23T14:49:36;2.50;99.90
9760;DHT22;4919;48.792;9.202;2023-01-23T14:52:26;2.50;99.90
9760;DHT22;4919;48.792;9.202;2023-01-23T14:55:23;2.50;99.90
9760;DHT22;4919;48.792;9.202;2023-01-23T14:58:20;2.50;99.90
9760;DHT22;4919;48.792;9.202;2023-01-23T15:01:06;2.50;99.90
9760;DHT22;4919;48.792;9.202;2023-01-23T15:04:05;2.50;99.90
9760;DHT22;4919;48.792;9.202;2023-01-23T15:06:52;2.40;99.90
9760;DHT22;4919;48.792;9.202;2023-01-23T15:09:38;2.40;99.90
9760;DHT22;4919;48.792;9.202;2023-01-23T15:12:23;2.40;99.90
9760;DHT22;4919;48.792;9.202;2023-01-23T15:15:16;2.40;99.90
9760;DHT22;4919;48.792;9.202;2023-01-23T15:18:05;2.40;99.90
9760;DHT22;4919;48.792;9.202;2023-01-23T15:21:05;2.40;99.90
9760;DHT22;4919;48.792;9.202;2023-01-23T15:24:05;2.30;99.90
9760;DHT22;4919;48.792;9.202;2023-01-23T15:26:57;2.30;99.90
9760;DHT22;4919;48.792;9.202;2023-01-23T15:29:42;2.30;99.90
9760;DHT22;4919;48.792;9.202;2023-01-23T15:32:27;2.30;99.90
9760;DHT22;4919;48.792;9.202;2023-01-23T15:35:15;2.30;99.90
9760;DHT22;4919;48.792;9.202;2023-01-23T15:37:59;2.20;99.90
9760;DHT22;4919;48.792;9.202;2023-01-23T15:40:44;2.20;99.90
9760;DHT22;4919;48.792;9.202;2023-01-23T15:43:29;2.20;99.90
9760;DHT22;4919;48.792;9.202;2023-01-23T15:46:14;2.30;99.90
9760;DHT22;4919;48.792;9.202;2023-01-23T15:48:59;2.20;99.90
9760;DHT22;4919;48.792;9.202;2023-01-23T15:51:45;2.30;99.90
9760;DHT22;4919;48.792;9.202;2023-01-23T15:54:35;2.30;99.90
9760;DHT22;4919;48.792;9.202;2023-01-23T15:57:20;2.30;99.90
9760;DHT22;4919;48.792;9.202;2023-01-23T16:00:19;2.30;99.90
9760;DHT22;4919;48.792;9.202;2023-01-23T16:03:04;2.20;99.90
9760;DHT22;4919;48.792;9.202;2023-01-23T16:05:49;2.20;99.90
9760;DHT22;4919;48.792;9.202;2023-01-23T16:08:34;2.20;99.90
9760;DHT22;4919;48.792;9.202;2023-01-23T16:11:19;2.20;99.90
9760;DHT22;4919;48.792;9.202;2023-01-23T16:14:04;2.20;99.90
9760;DHT22;4919;48.792;9.202;2023-01-23T16:16:49;2.20;99.90
9760;DHT22;4919;48.792;9.202;2023-01-23T16:19:33;2.20;99.90
9760;DHT22;4919;48.792;9.202;2023-01-23T16:22:26;2.20;99.90
9760;DHT22;4919;48.792;9.202;2023-01-23T16:28:15;2.10;99.90
9760;DHT22;4919;48.792;9.202;2023-01-23T16:31:00;2.10;99.90
9760;DHT22;4919;48.792;9.202;2023-01-23T16:33:45;2.10;99.90
9760;DHT22;4919;48.792;9.202;2023-01-23T16:36:30;2.10;99.90
9760;DHT22;4919;48.792;9.202;2023-01-23T16:39:20;2.10;99.90
9760;DHT22;4919;48.792;9.202;2023-01-23T16:42:13;2.10;99.90
9760;DHT22;4919;48.792;9.202;2023-01-23T16:44:58;2.10;99.90
9760;DHT22;4919;48.792;9.202;2023-01-23T16:47:43;2.10;99.90
9760;DHT22;4919;48.792;9.202;2023-01-23T16:50:42;2.10;99.90
9760;DHT22;4919;48.792;9.202;2023-01-23T16:53:37;2.10;99.90
9760;DHT22;4919;48.792;9.202;2023-01-23T16:56:36;2.00;99.90
9760;DHT22;4919;48.792;9.202;2023-01-23T16:59:29;2.10;99.90
9760;DHT22;4919;48.792;9.202;2023-01-23T17:02:21;2.10;99.90
9760;DHT22;4919;48.792;9.202;2023-01-23T17:05:08;2.10;99.90
9760;DHT22;4919;48.792;9.202;2023-01-23T17:07:53;2.10;99.90
9760;DHT22;4919;48.792;9.202;2023-01-23T17:10:38;2.10;99.90
9760;DHT22;4919;48.792;9.202;2023-01-23T17:13:23;2.00;99.90
9760;DHT22;4919;48.792;9.202;2023-01-23T17:16:08;2.00;99.90
9760;DHT22;4919;48.792;9.202;2023-01-23T17:18:53;2.00;99.90
9760;DHT22;4919;48.792;9.202;2023-01-23T17:21:39;2.10;99.90
9760;DHT22;4919;48.792;9.202;2023-01-23T17:24:24;2.00;99.90
9760;DHT22;4919;48.792;9.202;2023-01-23T17:27:09;2.00;99.90
9760;DHT22;4919;48.792;9.202;2023-01-23T17:29:54;2.00;99.90
9760;DHT22;4919;48.792;9.202;2023-01-23T17:32:39;1.90;99.90
9760;DHT22;4919;48.792;9.202;2023-01-23T17:35:31;2.00;99.90
9760;DHT22;4919;48.792;9.202;2023-01-23T17:38:20;1.90;99.90
9760;DHT22;4919;48.792;9.202;2023-01-23T17:41:05;1.90;99.90
9760;DHT22;4919;48.792;9.202;2023-01-23T17:43:50;1.90;99.90
9760;DHT22;4919;48.792;9.202;2023-01-23T17:46:35;1.90;99.90
9760;DHT22;4919;48.792;9.202;2023-01-23T17:49:28;1.90;99.90
9760;DHT22;4919;48.792;9.202;2023-01-23T17:52:14;1.90;99.90
9760;DHT22;4919;48.792;9.202;2023-01-23T17:54:59;1.90;99.90
9760;DHT22;4919;48.792;9.202;2023-01-23T17:57:44;1.90;99.90
9760;DHT22;4919;48.792;9.202;2023-01-23T18:00:29;1.90;99.90
9760;DHT22;4919;48.792;9.202;2023-01-23T18:03:17;1.90;99.90
9760;DHT22;4919;48.792;9.202;2023-01-23T18:06:03;1.80;99.90
9760;DHT22;4919;48.792;9.202;2023-01-23T18:08:48;1.90;99.90
9760;DHT22;4919;48.792;9.202;2023-01-23T18:11:33;1.90;99.90
9760;DHT22;4919;48.792;9.202;2023-01-23T18:14:49;1.90;99.90
9760;DHT22;4919;48.792;9.202;2023-01-23T18:17:51;1.80;99.90
9760;DHT22;4919;48.792;9.202;2023-01-23T18:20:39;1.80;99.90
9760;DHT22;4919;48.792;9.202;2023-01-23T18:23:25;1.80;99.90
9760;DHT22;4919;48.792;9.202;2023-01-23T18:41:29;1.90;99.90
9760;DHT22;4919;48.792;9.202;2023-01-23T18:44:23;1.80;99.90
9760;DHT22;4919;48.792;9.202;2023-01-23T18:47:13;1.80;99.90
9760;DHT22;4919;48.792;9.202;2023-01-23T18:49:59;1.80;99.90
9760;DHT22;4919;48.792;9.202;2023-01-23T18:55:44;1.80;99.90
9760;DHT22;4919;48.792;9.202;2023-01-23T19:01:56;1.80;99.90
9760;DHT22;4919;48.792;9.202;2023-01-23T19:04:50;1.80;99.90
9760;DHT22;4919;48.792;9.202;2023-01-23T19:07:39;1.80;99.90
9760;DHT22;4919;48.792;9.202;2023-01-23T19:10:26;1.80;99.90
9760;DHT22;4919;48.792;9.202;2023-01-23T19:13:19;1.80;99.90
9760;DHT22;4919;48.792;9.202;2023-01-23T19:16:23;1.70;99.90
9760;DHT22;4919;48.792;9.202;2023-01-23T19:19:29;1.70;99.90
9760;DHT22;4919;48.792;9.202;2023-01-23T19:22:17;1.80;99.90
9760;DHT22;4919;48.792;9.202;2023-01-23T19:25:02;1.80;99.90
9760;DHT22;4919;48.792;9.202;2023-01-23T19:27:47;1.80;99.90
9760;DHT22;4919;48.792;9.202;2023-01-23T19:30:34;1.70;99.90
9760;DHT22;4919;48.792;9.202;2023-01-23T19:33:20;1.70;99.90
9760;DHT22;4919;48.792;9.202;2023-01-23T19:36:05;1.70;99.90
9760;DHT22;4919;48.792;9.202;2023-01-23T19:38:50;1.70;99.90
9760;DHT22;4919;48.792;9.202;2023-01-23T19:41:41;1.70;99.90
9760;DHT22;4919;48.792;9.202;2023-01-23T19:44:27;1.70;99.90
9760;DHT22;4919;48.792;9.202;2023-01-23T19:47:11;1.70;99.90
9760;DHT22;4919;48.792;9.202;2023-01-23T19:49:56;1.70;99.90
9760;DHT22;4919;48.792;9.202;2023-01-23T19:52:42;1.70;99.90
9760;DHT22;4919;48.792;9.202;2023-01-23T19:55:32;1.70;99.90
9760;DHT22;4919;48.792;9.202;2023-01-23T19:58:17;1.70;99.90
9760;DHT22;4919;48.792;9.202;2023-01-23T20:01:05;1.70;99.90
9760;DHT22;4919;48.792;9.202;2023-01-23T20:03:55;1.70;99.90
9760;DHT22;4919;48.792;9.202;2023-01-23T20:06:40;1.70;99.90
9760;DHT22;4919;48.792;9.202;2023-01-23T20:09:25;1.60;99.90
9760;DHT22;4919;48.792;9.202;2023-01-23T20:12:11;1.70;99.90
9760;DHT22;4919;48.792;9.202;2023-01-23T20:14:56;1.60;99.90
9760;DHT22;4919;48.792;9.202;2023-01-23T20:17:41;1.70;99.90
9760;DHT22;4919;48.792;9.202;2023-01-23T20:20:26;1.70;99.90
9760;DHT22;4919;48.792;9.202;2023-01-23T20:23:11;1.60;99.90
9760;DHT22;4919;48.792;9.202;2023-01-23T20:26:00;1.70;99.90
9760;DHT22;4919;48.792;9.202;2023-01-23T20:28:49;1.70;99.90